Time;durP1;ratioP1;P1;durP2;ratioP2;P2;SDS_P1;SDS_P2;PMS_P1;PMS_P2;Temp;Humidity;BMP_temperature;BMP_pressure;BME280_temperature;BME280_humidity;BME280_pressure;Samples;Min_cycle;Max_cycle;Signal;HPM_P1;HPM_P2
2022/07/06 00:01:13;;;;;;;1.58;1.10;;;18.90;78.90;;;;;;6242887;28;20053;-81
2022/07/06 00:04:16;;;;;;;1.02;0.80;;;18.70;79.50;;;;;;6240828;28;20129;-80
2022/07/06 00:07:17;;;;;;;3.90;1.30;;;18.70;80.10;;;;;;6240114;28;20046;-80
2022/07/06 00:10:19;;;;;;;1.42;0.70;;;18.60;80.70;;;;;;6240561;28;20037;-82
2022/07/06 00:13:30;;;;;;;1.15;0.82;;;18.60;81.50;;;;;;6239223;28;20137;-80
2022/07/06 00:16:33;;;;;;;2.17;0.75;;;18.50;81.70;;;;;;6211273;28;20061;-79
2022/07/06 00:19:36;;;;;;;3.03;0.90;;;18.40;81.60;;;;;;6209274;28;20062;-81
2022/07/06 00:22:38;;;;;;;4.63;0.95;;;18.30;81.60;;;;;;6210352;28;20542;-78
2022/07/06 00:25:40;;;;;;;2.40;0.80;;;18.40;82.10;;;;;;6208245;28;20050;-79
2022/07/06 00:28:42;;;;;;;6.75;1.05;;;18.40;82.20;;;;;;6211483;28;20056;-80
2022/07/06 00:31:43;;;;;;;4.97;1.15;;;18.40;83.40;;;;;;6213786;28;20046;-82
2022/07/06 00:34:46;;;;;;;3.63;0.93;;;18.40;83.10;;;;;;6211426;28;20054;-78
2022/07/06 00:37:48;;;;;;;3.55;1.55;;;18.30;83.50;;;;;;6208544;28;20047;-80
2022/07/06 00:40:50;;;;;;;2.03;0.95;;;18.30;83.80;;;;;;6212487;28;20053;-80
2022/07/06 00:43:55;;;;;;;3.72;1.30;;;18.30;84.10;;;;;;6211078;28;20492;-78
2022/07/06 00:46:56;;;;;;;2.65;1.50;;;18.30;84.70;;;;;;6208026;28;20066;-78
2022/07/06 00:50:15;;;;;;;1.42;0.80;;;18.20;85.10;;;;;;6206912;28;20065;-79
2022/07/06 00:53:17;;;;;;;2.17;0.93;;;18.10;85.30;;;;;;6206931;28;20050;-79
2022/07/06 00:56:19;;;;;;;4.88;1.08;;;18.10;85.50;;;;;;6205220;28;20046;-80
2022/07/06 00:59:21;;;;;;;2.35;1.45;;;18.10;86.20;;;;;;6204532;28;20424;-79
2022/07/06 01:02:23;;;;;;;1.92;0.90;;;18.00;86.60;;;;;;6204433;28;20052;-78
2022/07/06 01:05:26;;;;;;;1.77;1.38;;;17.90;86.90;;;;;;6206406;28;20053;-80
2022/07/06 01:08:29;;;;;;;8.02;2.15;;;17.80;87.50;;;;;;6202843;28;20050;-79
2022/07/06 01:11:31;;;;;;;3.13;1.20;;;17.80;88.00;;;;;;6204711;28;20049;-78
2022/07/06 01:14:33;;;;;;;5.80;1.55;;;17.80;88.10;;;;;;6204718;28;20526;-77
2022/07/06 01:17:35;;;;;;;3.00;1.15;;;17.80;88.60;;;;;;6204644;28;20054;-81
2022/07/06 01:20:38;;;;;;;1.95;1.13;;;17.70;89.10;;;;;;6204578;28;20056;-77
2022/07/06 01:23:41;;;;;;;2.58;1.10;;;17.60;89.50;;;;;;6205079;28;20042;-79
2022/07/06 01:26:43;;;;;;;3.00;1.27;;;17.60;90.00;;;;;;6205196;28;20125;-78
2022/07/06 01:29:45;;;;;;;4.32;1.35;;;17.50;90.10;;;;;;6204759;28;20500;-78
2022/07/06 01:32:47;;;;;;;4.15;1.30;;;17.50;90.30;;;;;;6206586;28;20046;-79
2022/07/06 01:35:50;;;;;;;2.92;1.30;;;17.50;90.40;;;;;;6204844;28;20052;-78
2022/07/06 01:38:54;;;;;;;2.35;1.63;;;17.50;90.40;;;;;;6204182;28;20062;-79
2022/07/06 01:41:55;;;;;;;3.20;1.27;;;17.60;90.40;;;;;;6204464;28;20049;-78
2022/07/06 01:44:58;;;;;;;1.98;1.13;;;17.60;90.40;;;;;;6205034;28;20057;-78
2022/07/06 01:47:59;;;;;;;1.85;1.40;;;17.60;90.50;;;;;;6204359;28;20053;-77
2022/07/06 01:51:03;;;;;;;6.78;1.33;;;17.60;90.70;;;;;;6202829;28;20538;-78
2022/07/06 01:54:05;;;;;;;2.83;1.25;;;17.50;90.90;;;;;;6203704;28;20102;-80
2022/07/06 01:57:06;;;;;;;9.23;1.40;;;17.40;91.10;;;;;;6205028;28;20408;-79
2022/07/06 02:00:09;;;;;;;2.55;1.40;;;17.30;91.10;;;;;;6204141;28;20047;-80
2022/07/06 02:03:11;;;;;;;2.38;1.60;;;17.30;91.30;;;;;;6203141;28;20049;-80
2022/07/06 02:06:14;;;;;;;2.00;1.40;;;17.20;91.40;;;;;;6202986;28;20048;-79
2022/07/06 02:09:16;;;;;;;4.47;1.42;;;17.20;91.60;;;;;;6202534;28;20050;-78
2022/07/06 02:12:18;;;;;;;2.72;1.27;;;17.10;91.80;;;;;;6201896;28;20046;-79
2022/07/06 02:15:19;;;;;;;5.13;1.42;;;17.00;92.10;;;;;;6207046;28;20137;-80
2022/07/06 02:18:21;;;;;;;2.70;1.17;;;17.00;92.30;;;;;;6206171;28;20505;-78
2022/07/06 02:21:24;;;;;;;4.28;1.25;;;16.90;92.50;;;;;;6209590;28;20046;-80
2022/07/06 02:24:26;;;;;;;3.08;1.70;;;16.80;92.60;;;;;;6209515;28;20069;-79
2022/07/06 02:27:28;;;;;;;2.53;1.85;;;16.70;92.80;;;;;;6211419;28;20046;-80
2022/07/06 02:30:29;;;;;;;4.65;1.27;;;16.60;93.20;;;;;;6211874;28;20141;-79
2022/07/06 02:33:31;;;;;;;4.95;1.98;;;16.50;93.30;;;;;;6211921;28;20060;-79
2022/07/06 02:36:34;;;;;;;4.95;1.85;;;16.50;93.60;;;;;;6211087;28;20054;-80
2022/07/06 02:39:36;;;;;;;5.20;1.42;;;16.40;93.80;;;;;;6212062;28;20114;-80
2022/07/06 02:42:38;;;;;;;3.08;1.77;;;16.40;94.00;;;;;;6210413;28;20133;-79
2022/07/06 02:45:40;;;;;;;3.85;2.13;;;16.40;94.10;;;;;;6210271;28;20057;-80
2022/07/06 02:48:41;;;;;;;2.75;1.88;;;16.40;94.20;;;;;;6210394;28;20060;-79
2022/07/06 02:51:44;;;;;;;6.10;1.58;;;16.30;94.30;;;;;;6211497;28;20042;-78
2022/07/06 02:54:46;;;;;;;2.28;1.52;;;16.30;94.60;;;;;;6209257;28;20050;-78
2022/07/06 02:57:48;;;;;;;3.60;1.52;;;16.20;94.70;;;;;;6206642;28;20058;-78
2022/07/06 03:00:50;;;;;;;2.13;1.55;;;16.20;94.80;;;;;;6210918;28;20057;-79
2022/07/06 03:03:51;;;;;;;3.67;1.83;;;16.20;94.90;;;;;;6214631;28;20060;-80
2022/07/06 03:06:54;;;;;;;3.65;1.77;;;16.20;94.90;;;;;;6216464;28;20050;-78
2022/07/06 03:09:56;;;;;;;3.92;2.08;;;16.10;95.00;;;;;;6211642;28;20106;-80
2022/07/06 03:12:58;;;;;;;2.53;1.63;;;16.10;95.10;;;;;;6210901;28;20054;-82
2022/07/06 03:16:00;;;;;;;3.50;1.70;;;16.10;95.10;;;;;;6211028;28;20057;-79
2022/07/06 03:19:01;;;;;;;6.30;1.83;;;16.20;95.10;;;;;;6210592;28;20578;-80
2022/07/06 03:22:05;;;;;;;1.85;1.45;;;16.20;95.20;;;;;;6210019;28;20049;-80
2022/07/06 03:25:07;;;;;;;3.45;1.85;;;16.20;95.10;;;;;;6210979;28;20069;-81
2022/07/06 03:28:08;;;;;;;2.70;1.50;;;16.20;95.00;;;;;;6213060;28;20050;-80
2022/07/06 03:31:10;;;;;;;4.13;1.60;;;16.20;95.00;;;;;;6208096;28;20053;-78
2022/07/06 03:34:12;;;;;;;4.35;1.98;;;16.30;95.10;;;;;;6203670;28;20057;-78
2022/07/06 03:37:15;;;;;;;4.15;1.80;;;16.30;95.20;;;;;;6203879;28;20069;-78
2022/07/06 03:40:17;;;;;;;3.97;1.48;;;16.30;95.10;;;;;;6202787;28;20054;-78
2022/07/06 03:43:18;;;;;;;4.00;1.60;;;16.30;95.00;;;;;;6202911;28;20162;-77
2022/07/06 03:46:20;;;;;;;2.30;1.33;;;16.40;94.90;;;;;;6203339;28;20501;-79
2022/07/06 03:49:22;;;;;;;6.90;1.67;;;16.40;94.90;;;;;;6203871;28;20073;-79
2022/07/06 03:52:25;;;;;;;5.65;1.73;;;16.50;94.90;;;;;;6203487;28;20129;-80
2022/07/06 03:55:27;;;;;;;6.32;1.50;;;16.50;94.90;;;;;;6203449;28;20077;-78
2022/07/06 03:58:29;;;;;;;2.45;1.70;;;16.50;94.80;;;;;;6203639;28;20046;-78
2022/07/06 04:01:30;;;;;;;5.13;1.65;;;16.70;94.60;;;;;;6204474;28;20077;-79
2022/07/06 04:04:34;;;;;;;1.42;1.08;;;16.80;94.10;;;;;;6204518;28;20058;-79
2022/07/06 04:07:37;;;;;;;6.53;1.40;;;17.00;93.60;;;;;;6203037;28;20054;-86
2022/07/06 04:10:38;;;;;;;5.28;1.85;;;17.20;93.20;;;;;;6204048;28;20082;-80
2022/07/06 04:13:40;;;;;;;5.75;1.30;;;17.40;92.60;;;;;;6205062;28;20106;-81
2022/07/06 04:16:42;;;;;;;2.33;0.90;;;17.50;92.30;;;;;;6204417;28;20137;-78
2022/07/06 04:19:44;;;;;;;1.92;1.02;;;18.20;91.20;;;;;;6203849;28;20415;-78
2022/07/06 04:22:47;;;;;;;2.90;1.05;;;19.30;88.40;;;;;;6203307;28;20050;-78
2022/07/06 04:25:49;;;;;;;6.53;1.80;;;20.00;84.50;;;;;;6203530;28;20054;-82
2022/07/06 04:28:50;;;;;;;1.70;0.95;;;20.00;83.10;;;;;;6204079;28;20054;-79
2022/07/06 04:31:52;;;;;;;4.30;1.27;;;19.80;82.60;;;;;;6204033;28;20050;-78
2022/07/06 04:34:54;;;;;;;2.65;0.70;;;19.60;83.10;;;;;;6202569;28;20070;-78
2022/07/06 04:37:57;;;;;;;1.70;0.90;;;19.50;83.60;;;;;;6202276;28;20564;-79
2022/07/06 04:40:58;;;;;;;1.70;1.10;;;19.50;82.60;;;;;;6203091;28;20061;-78
2022/07/06 04:44:00;;;;;;;4.15;0.85;;;19.60;82.10;;;;;;6202696;28;20053;-80
2022/07/06 04:47:02;;;;;;;6.28;0.90;;;20.10;81.10;;;;;;6204254;28;20420;-80
2022/07/06 04:50:04;;;;;;;5.55;1.00;;;21.80;75.00;;;;;;6203249;28;20411;-78
2022/07/06 04:53:07;;;;;;;4.13;0.85;;;23.50;69.10;;;;;;6201878;28;20046;-77
2022/07/06 04:56:09;;;;;;;3.78;1.13;;;24.60;63.30;;;;;;6200915;28;20054;-78
2022/07/06 04:59:11;;;;;;;7.20;0.88;;;25.60;59.90;;;;;;6200959;28;20049;-78
2022/07/06 05:02:13;;;;;;;1.50;0.50;;;26.80;55.60;;;;;;6201350;28;20416;-77
2022/07/06 05:05:14;;;;;;;2.92;0.75;;;27.00;53.50;;;;;;6201975;28;20058;-78
2022/07/06 05:08:18;;;;;;;3.25;1.00;;;27.40;52.00;;;;;;6201290;28;20521;-77
2022/07/06 05:15:36;;;;;;;2.63;0.60;;;28.80;47.20;;;;;;6277751;28;20548;-83
2022/07/06 05:18:57;;;;;;;1.20;0.65;;;28.70;46.10;;;;;;6283666;28;20065;-83
2022/07/06 05:22:14;;;;;;;9.25;1.00;;;29.20;44.90;;;;;;6268533;28;20091;-83
2022/07/06 05:25:23;;;;;;;2.58;0.82;;;29.80;43.60;;;;;;6270425;28;20068;-83
2022/07/06 05:28:29;;;;;;;2.70;0.80;;;30.30;42.20;;;;;;6257530;28;20052;-82
2022/07/06 05:31:48;;;;;;;2.72;1.30;;;30.90;41.30;;;;;;6270441;28;20044;-82
2022/07/06 05:34:51;;;;;;;5.63;0.98;;;31.30;40.70;;;;;;6271660;28;20085;-83
2022/07/06 05:37:53;;;;;;;5.18;0.60;;;32.10;39.80;;;;;;6273902;28;20032;-81
2022/07/06 05:40:59;;;;;;;4.65;0.80;;;32.70;38.40;;;;;;6272508;28;20072;-81
2022/07/06 05:59:55;;;;;;;4.32;0.80;;;34.80;35.70;;;;;;6093977;29;20048;-82
2022/07/06 06:07:41;;;;;;;3.65;0.77;;;37.50;32.30;;;;;;6123005;28;20047;-82
2022/07/06 06:15:07;;;;;;;4.72;1.05;;;33.00;36.10;;;;;;6052291;29;20121;-82
2022/07/06 07:33:10;;;;;;;1.60;0.55;;;38.20;30.30;;;;;;6212667;28;20050;-81
2022/07/06 07:36:11;;;;;;;9.30;1.20;;;39.00;30.40;;;;;;6211305;28;20050;-83
2022/07/06 07:39:28;;;;;;;4.28;1.10;;;38.30;30.10;;;;;;6167998;28;20047;-82
2022/07/06 07:42:32;;;;;;;2.25;0.80;;;35.80;32.10;;;;;;6181275;28;20054;-80
2022/07/06 07:50:15;;;;;;;4.93;0.70;;;31.90;36.60;;;;;;6177415;28;20054;-83
2022/07/06 08:01:58;;;;;;;1.60;0.63;;;28.40;42.10;;;;;;6064049;29;20084;-87
2022/07/06 08:05:00;;;;;;;1.42;0.90;;;27.90;43.40;;;;;;6113473;28;20114;-86
2022/07/06 08:08:03;;;;;;;3.53;0.57;;;27.60;43.20;;;;;;6187945;28;20063;-81
2022/07/06 08:15:08;;;;;;;5.97;1.33;;;27.30;44.30;;;;;;6121014;29;20047;-85
2022/07/06 08:18:38;;;;;;;3.08;1.10;;;27.20;44.30;;;;;;6170498;28;20074;-86
2022/07/06 08:30:00;;;;;;;8.70;0.80;;;27.20;45.00;;;;;;6160840;28;20066;-84
2022/07/06 08:33:08;;;;;;;5.15;1.30;;;27.20;45.00;;;;;;6167484;29;20082;-86
2022/07/06 08:36:10;;;;;;;7.97;1.77;;;27.30;45.10;;;;;;6171082;28;20047;-86
2022/07/06 08:39:13;;;;;;;5.72;1.10;;;27.30;44.90;;;;;;6168015;29;20047;-86
2022/07/06 08:42:17;;;;;;;2.22;0.68;;;27.30;44.90;;;;;;6174650;28;20051;-85
2022/07/06 08:45:21;;;;;;;5.00;0.73;;;27.30;45.20;;;;;;6189590;28;20126;-84
2022/07/06 08:48:25;;;;;;;5.53;1.15;;;27.40;45.10;;;;;;6190515;28;20070;-83
2022/07/06 08:51:37;;;;;;;3.95;1.08;;;27.40;44.90;;;;;;6194786;28;20055;-85
2022/07/06 08:54:39;;;;;;;10.73;1.10;;;27.30;45.00;;;;;;6192649;28;20114;-86
2022/07/06 08:57:43;;;;;;;3.25;1.20;;;27.40;44.90;;;;;;6189758;28;20664;-85
2022/07/06 09:00:46;;;;;;;5.20;1.10;;;27.40;44.70;;;;;;6187784;28;20047;-86
2022/07/06 09:03:59;;;;;;;5.70;0.85;;;27.50;44.70;;;;;;6185429;28;20118;-86
2022/07/06 09:07:07;;;;;;;3.55;0.82;;;27.70;44.50;;;;;;6190094;28;20051;-83
2022/07/06 09:10:09;;;;;;;5.65;1.67;;;28.00;44.30;;;;;;6188770;28;20047;-84
2022/07/06 09:13:17;;;;;;;3.25;0.60;;;28.10;43.80;;;;;;6184190;28;20126;-84
2022/07/06 09:16:29;;;;;;;5.68;0.75;;;28.20;44.00;;;;;;6188422;28;20114;-84
2022/07/06 09:19:41;;;;;;;5.15;1.67;;;28.40;43.30;;;;;;6176257;28;20051;-84
2022/07/06 09:22:43;;;;;;;3.22;1.17;;;28.30;43.10;;;;;;6190442;28;20047;-84
2022/07/06 09:25:49;;;;;;;2.65;1.20;;;28.30;43.00;;;;;;6191008;28;20054;-84
2022/07/06 09:29:14;;;;;;;8.13;1.20;;;28.30;43.20;;;;;;6192332;28;20057;-85
2022/07/06 09:32:21;;;;;;;9.93;1.50;;;28.60;42.70;;;;;;6174128;28;20049;-83
2022/07/06 09:35:26;;;;;;;8.10;1.00;;;28.80;42.40;;;;;;6195002;28;20030;-85
2022/07/06 09:38:29;;;;;;;10.15;3.45;;;28.80;42.50;;;;;;6194261;28;20042;-85
2022/07/06 09:41:36;;;;;;;5.10;0.80;;;28.90;41.90;;;;;;6196906;28;20058;-83
2022/07/06 09:44:40;;;;;;;3.22;0.73;;;28.90;42.00;;;;;;6200309;28;20106;-84
2022/07/06 09:47:48;;;;;;;9.43;1.65;;;29.00;41.70;;;;;;6198462;28;20062;-84
2022/07/06 09:50:52;;;;;;;4.40;1.08;;;29.20;41.40;;;;;;6194985;28;20078;-83
2022/07/06 09:53:58;;;;;;;3.30;1.02;;;29.20;41.10;;;;;;6196469;28;20051;-83
2022/07/06 09:57:00;;;;;;;5.32;1.02;;;28.90;41.30;;;;;;6192968;28;20050;-83
2022/07/06 10:00:02;;;;;;;3.78;1.05;;;28.70;41.60;;;;;;6187977;28;20049;-85
2022/07/06 10:03:08;;;;;;;3.50;1.05;;;28.50;42.00;;;;;;6182077;28;20043;-84
2022/07/06 10:06:13;;;;;;;8.27;1.42;;;28.30;42.10;;;;;;6185851;28;20053;-84
2022/07/06 10:09:22;;;;;;;6.63;1.00;;;28.30;42.30;;;;;;6186260;28;20046;-84
2022/07/06 10:12:47;;;;;;;;;;;;;;;;;;;;;
2022/07/06 10:15:57;;;;;;;5.78;1.27;;;28.80;41.50;;;;;;6168650;28;20050;-84
2022/07/06 10:19:25;;;;;;;3.47;1.00;;;29.30;41.10;;;;;;6182849;28;20052;-84
2022/07/06 10:35:18;;;;;;;8.50;1.15;;;30.20;40.40;;;;;;5948041;29;20081;-84
2022/07/06 10:38:43;;;;;;;2.25;1.08;;;30.30;39.80;;;;;;6054805;28;20118;-84
2022/07/06 10:41:47;;;;;;;3.80;0.88;;;30.10;40.00;;;;;;6161987;28;20082;-83
2022/07/06 10:44:54;;;;;;;7.03;2.80;;;30.00;40.20;;;;;;6181981;28;20047;-84
2022/07/06 10:48:20;;;;;;;9.30;0.70;;;29.70;40.60;;;;;;6183475;28;20039;-84
2022/07/06 10:51:28;;;;;;;5.35;1.95;;;29.70;41.00;;;;;;6183091;28;20305;-84
2022/07/06 10:54:39;;;;;;;;;;;29.80;41.20;;;;;;6185176;28;20051;-83
2022/07/06 10:57:53;;;;;;;2.30;1.63;;;30.00;40.90;;;;;;6185091;28;19991;-84
2022/07/06 11:01:02;;;;;;;7.00;2.17;;;30.40;40.70;;;;;;6184546;28;20074;-83
2022/07/06 11:04:10;;;;;;;3.65;1.55;;;30.60;40.20;;;;;;6184861;28;20488;-83
2022/07/06 11:07:24;;;;;;;8.00;1.77;;;31.00;40.00;;;;;;6187397;28;20057;-84
2022/07/06 11:10:26;;;;;;;3.58;1.60;;;31.30;39.40;;;;;;6198668;23;20054;-78
2022/07/06 11:13:28;;;;;;;5.65;0.80;;;31.50;38.70;;;;;;6193160;28;20046;-78
2022/07/06 11:16:33;;;;;;;1.60;0.82;;;31.80;38.60;;;;;;6189471;28;20065;-78
2022/07/06 11:19:35;;;;;;;4.45;0.70;;;31.90;38.30;;;;;;6189562;28;20047;-78
2022/07/06 11:22:39;;;;;;;4.13;0.77;;;31.60;38.40;;;;;;6168686;28;20072;-78
2022/07/06 11:25:42;;;;;;;2.90;0.60;;;31.30;38.80;;;;;;6169856;28;20070;-78
2022/07/06 11:28:47;;;;;;;8.52;1.23;;;31.30;39.00;;;;;;6171555;28;20043;-79
2022/07/06 11:31:50;;;;;;;4.88;0.63;;;31.60;39.10;;;;;;6170952;28;20051;-78
2022/07/06 11:34:52;;;;;;;1.17;0.47;;;31.90;38.90;;;;;;6170572;28;20170;-79
2022/07/06 11:37:55;;;;;;;7.00;0.95;;;32.30;38.10;;;;;;6171327;28;20042;-79
2022/07/06 11:40:57;;;;;;;2.20;0.50;;;32.50;37.60;;;;;;6173613;28;20047;-79
2022/07/06 11:43:59;;;;;;;2.08;0.65;;;32.40;37.40;;;;;;6172370;28;20525;-79
2022/07/06 11:47:03;;;;;;;2.25;0.70;;;32.30;37.70;;;;;;6171461;28;20051;-79
2022/07/06 11:50:06;;;;;;;2.90;0.60;;;32.30;37.70;;;;;;6176734;28;20057;-78
2022/07/06 11:53:10;;;;;;;1.73;0.70;;;32.50;37.50;;;;;;6175077;28;20213;-78
2022/07/06 11:56:12;;;;;;;2.08;0.63;;;32.70;36.90;;;;;;6174666;28;20078;-79
2022/07/06 11:59:15;;;;;;;1.67;0.55;;;32.50;37.00;;;;;;6178513;28;20047;-78
2022/07/06 12:02:17;;;;;;;3.42;0.45;;;32.10;37.60;;;;;;6175790;28;20038;-79
2022/07/06 12:05:30;;;;;;;7.57;1.02;;;31.60;37.90;;;;;;6176526;28;20197;-79
2022/07/06 12:08:41;;;;;;;1.92;0.65;;;31.30;38.70;;;;;;6175442;28;20066;-79
2022/07/06 12:11:47;;;;;;;5.88;0.95;;;31.20;38.10;;;;;;6178929;28;20043;-79
2022/07/06 12:14:48;;;;;;;2.40;0.50;;;31.00;38.10;;;;;;6176093;28;20054;-79
2022/07/06 12:17:50;;;;;;;3.88;1.13;;;31.20;38.70;;;;;;6180619;28;20059;-79
2022/07/06 12:20:55;;;;;;;2.15;0.60;;;31.50;38.70;;;;;;6183421;28;20051;-79
2022/07/06 12:23:58;;;;;;;3.50;0.77;;;31.90;37.40;;;;;;6179455;28;20405;-78
2022/07/06 12:27:11;;;;;;;4.05;1.05;;;32.30;37.10;;;;;;6175764;28;20043;-79
2022/07/06 12:30:14;;;;;;;2.13;0.65;;;32.40;37.00;;;;;;6178282;28;20088;-79
2022/07/06 12:33:18;;;;;;;1.85;0.50;;;32.50;37.20;;;;;;6175256;28;20050;-78
2022/07/06 12:36:19;;;;;;;5.43;0.40;;;32.20;37.10;;;;;;6174813;28;20082;-79
2022/07/06 12:39:24;;;;;;;3.92;1.00;;;32.00;37.20;;;;;;6174692;28;20042;-79
2022/07/06 12:42:26;;;;;;;3.00;0.68;;;32.10;37.30;;;;;;6175739;28;20053;-79
2022/07/06 12:45:28;;;;;;;4.93;0.70;;;32.40;36.80;;;;;;6172953;28;20047;-79
2022/07/06 12:48:30;;;;;;;4.00;0.93;;;32.50;36.40;;;;;;6173077;28;20042;-79
2022/07/06 12:51:50;;;;;;;1.35;0.52;;;32.70;36.30;;;;;;6178343;28;20057;-79
2022/07/06 12:54:53;;;;;;;1.13;0.32;;;33.10;36.10;;;;;;6174427;28;20043;-79
2022/07/06 12:57:56;;;;;;;1.75;0.50;;;33.30;35.80;;;;;;6173804;28;20046;-79
2022/07/06 13:00:58;;;;;;;1.88;0.50;;;33.60;35.10;;;;;;6174595;28;20055;-79
2022/07/06 13:03:59;;;;;;;1.63;0.47;;;33.80;34.90;;;;;;6175525;28;20412;-79
2022/07/06 13:07:02;;;;;;;0.75;0.32;;;33.90;34.60;;;;;;6173474;28;20051;-79
2022/07/06 13:10:07;;;;;;;4.78;0.70;;;34.20;34.20;;;;;;6179937;28;20069;-79
2022/07/06 13:13:09;;;;;;;5.45;0.80;;;34.50;34.10;;;;;;6183039;28;20501;-80
2022/07/06 13:16:11;;;;;;;0.28;0.28;;;34.70;33.60;;;;;;6182067;28;20055;-78
2022/07/06 13:19:13;;;;;;;1.45;0.30;;;34.80;33.30;;;;;;6181682;28;20048;-80
2022/07/06 13:22:15;;;;;;;5.00;0.82;;;34.90;32.80;;;;;;6174036;28;20047;-80
2022/07/06 13:25:18;;;;;;;0.88;0.30;;;34.70;32.00;;;;;;6173687;28;20516;-79
2022/07/06 13:28:20;;;;;;;2.38;0.47;;;34.60;32.10;;;;;;6172213;28;20520;-79
2022/07/06 13:31:22;;;;;;;0.40;0.10;;;34.30;32.10;;;;;;6174629;28;20060;-79
2022/07/06 13:34:24;;;;;;;5.22;0.40;;;34.00;31.80;;;;;;6172801;28;20055;-78
2022/07/06 13:37:26;;;;;;;0.73;0.40;;;33.90;31.90;;;;;;6173938;28;20567;-79
2022/07/06 13:40:29;;;;;;;3.00;0.52;;;33.80;31.80;;;;;;6178001;28;20054;-80
2022/07/06 13:43:35;;;;;;;1.58;0.88;;;33.70;31.70;;;;;;6174930;28;20519;-79
2022/07/06 13:46:37;;;;;;;0.50;0.20;;;33.60;31.70;;;;;;6175326;28;20058;-80
2022/07/06 13:49:39;;;;;;;1.80;0.38;;;33.70;31.70;;;;;;6178490;28;20313;-79
2022/07/06 13:52:41;;;;;;;3.67;0.50;;;33.90;31.70;;;;;;6179219;28;20058;-78
2022/07/06 13:55:44;;;;;;;1.77;0.40;;;34.30;31.40;;;;;;6174337;28;20054;-79
2022/07/06 13:58:46;;;;;;;1.38;0.47;;;34.40;31.30;;;;;;6174390;28;20420;-79
2022/07/06 14:01:47;;;;;;;0.60;0.30;;;34.40;31.00;;;;;;6173520;28;20567;-79
2022/07/06 14:04:49;;;;;;;4.35;0.60;;;34.60;31.30;;;;;;6171619;28;20421;-79
2022/07/06 14:07:51;;;;;;;1.55;0.40;;;34.70;31.10;;;;;;6176444;28;20053;-80
2022/07/06 14:10:54;;;;;;;0.85;0.35;;;34.70;30.90;;;;;;6182231;28;20043;-79
2022/07/06 14:13:56;;;;;;;2.30;0.60;;;34.60;30.90;;;;;;6188305;28;20043;-80
2022/07/06 14:16:58;;;;;;;1.35;0.50;;;34.50;30.60;;;;;;6186980;28;20046;-80
2022/07/06 14:19:59;;;;;;;1.83;0.20;;;34.30;30.40;;;;;;6193795;28;20053;-80
2022/07/06 14:23:01;;;;;;;1.23;0.52;;;34.10;30.60;;;;;;6187439;28;20043;-80
2022/07/06 14:26:04;;;;;;;1.60;0.40;;;34.10;30.80;;;;;;6174419;28;20431;-79
2022/07/06 14:29:06;;;;;;;1.33;0.30;;;34.20;30.50;;;;;;6173234;28;20062;-79
2022/07/06 14:32:08;;;;;;;5.35;0.70;;;34.50;31.10;;;;;;6177118;28;20054;-78
2022/07/06 14:35:10;;;;;;;1.55;0.60;;;34.80;30.50;;;;;;6177989;28;20057;-79
2022/07/06 14:38:12;;;;;;;0.40;0.17;;;34.80;30.40;;;;;;6181808;28;20066;-82
2022/07/06 14:41:15;;;;;;;0.90;0.40;;;34.60;30.50;;;;;;6175518;28;20054;-81
2022/07/06 14:44:17;;;;;;;1.63;0.35;;;34.30;30.90;;;;;;6183278;28;20041;-79
2022/07/06 14:47:18;;;;;;;0.68;0.30;;;34.10;30.90;;;;;;6182695;28;20046;-82
2022/07/06 14:50:23;;;;;;;1.50;0.50;;;34.00;31.20;;;;;;6179581;28;20050;-83
2022/07/06 14:53:25;;;;;;;1.90;0.43;;;33.70;31.30;;;;;;6183397;28;20518;-80
2022/07/06 14:56:28;;;;;;;1.17;0.63;;;33.40;31.60;;;;;;6186047;28;20057;-80
2022/07/06 14:59:29;;;;;;;1.05;0.60;;;33.30;31.50;;;;;;6176267;28;20043;-78
2022/07/06 15:02:31;;;;;;;0.50;0.30;;;33.00;31.30;;;;;;6178435;28;20054;-79
2022/07/06 15:05:33;;;;;;;2.80;1.50;;;32.90;31.50;;;;;;6179878;28;20050;-79
2022/07/06 15:08:35;;;;;;;1.83;0.50;;;33.00;32.00;;;;;;6186637;28;21662;-79
2022/07/06 15:11:38;;;;;;;1.55;0.30;;;33.10;31.60;;;;;;6178406;28;20460;-81
2022/07/06 15:14:40;;;;;;;1.70;0.45;;;33.10;30.80;;;;;;6176793;28;20477;-79
2022/07/06 15:17:41;;;;;;;0.20;0.10;;;33.00;31.60;;;;;;6172042;28;20055;-79
2022/07/06 15:20:43;;;;;;;0.80;0.20;;;33.00;31.40;;;;;;6172498;28;20047;-81
2022/07/06 15:23:45;;;;;;;2.60;0.50;;;32.90;31.40;;;;;;6177525;28;20444;-78
2022/07/06 15:26:48;;;;;;;0.60;0.40;;;32.80;31.80;;;;;;6181141;28;20042;-80
2022/07/06 15:29:50;;;;;;;2.95;0.75;;;32.60;31.40;;;;;;6177550;28;20043;-80
2022/07/06 15:32:51;;;;;;;2.05;0.73;;;32.40;31.10;;;;;;6191609;28;20050;-83
2022/07/06 15:35:53;;;;;;;2.85;0.70;;;32.00;31.70;;;;;;6194408;28;20094;-79
2022/07/06 15:38:55;;;;;;;2.30;1.40;;;31.70;32.10;;;;;;6184530;28;20046;-79
2022/07/06 15:41:58;;;;;;;0.93;0.50;;;31.60;32.30;;;;;;6177653;28;20050;-80
2022/07/06 15:45:00;;;;;;;2.22;0.45;;;31.50;31.90;;;;;;6184153;28;20053;-82
2022/07/06 15:48:02;;;;;;;2.55;0.60;;;31.60;32.20;;;;;;6156850;28;20077;-78
2022/07/06 15:51:04;;;;;;;7.13;0.40;;;31.60;31.90;;;;;;6188034;28;20051;-81
2022/07/06 15:54:05;;;;;;;1.17;0.25;;;31.60;31.80;;;;;;6189346;28;20061;-80
2022/07/06 15:57:09;;;;;;;0.32;0.30;;;31.50;31.70;;;;;;6187415;28;20508;-80
2022/07/06 16:00:11;;;;;;;2.17;0.43;;;31.30;31.60;;;;;;6182247;28;20038;-80
2022/07/06 16:03:13;;;;;;;2.63;0.75;;;31.10;32.30;;;;;;6188840;28;20135;-80
2022/07/06 16:06:15;;;;;;;1.42;0.70;;;30.80;32.40;;;;;;6183976;28;20050;-81
2022/07/06 16:09:17;;;;;;;3.53;0.77;;;30.60;32.80;;;;;;6174325;28;20050;-81
2022/07/06 16:12:20;;;;;;;4.53;0.57;;;30.30;32.80;;;;;;6183198;28;20072;-83
2022/07/06 16:15:22;;;;;;;10.55;5.82;;;30.10;32.90;;;;;;6168566;28;20047;-81
2022/07/06 16:18:25;;;;;;;3.20;0.90;;;30.00;33.30;;;;;;6184007;28;20058;-79
2022/07/06 16:21:26;;;;;;;3.95;0.93;;;29.70;33.20;;;;;;6181398;28;20046;-80
2022/07/06 16:24:28;;;;;;;1.33;0.63;;;29.50;33.60;;;;;;6182695;28;20042;-80
2022/07/06 16:27:31;;;;;;;2.70;0.93;;;29.40;33.60;;;;;;6181615;28;20594;-82
2022/07/06 16:30:33;;;;;;;3.40;1.40;;;29.20;33.80;;;;;;6188953;28;20050;-79
2022/07/06 16:33:36;;;;;;;0.70;0.40;;;29.00;33.80;;;;;;6167894;28;20047;-80
2022/07/06 16:36:38;;;;;;;2.70;1.77;;;28.80;34.60;;;;;;6180559;28;20058;-82
2022/07/06 16:39:42;;;;;;;2.22;1.05;;;28.60;35.20;;;;;;6193240;28;20046;-80
2022/07/06 16:42:45;;;;;;;5.40;2.03;;;28.60;35.20;;;;;;6187805;28;20077;-81
2022/07/06 16:45:47;;;;;;;3.80;1.05;;;28.50;35.70;;;;;;6180726;28;20567;-81
2022/07/06 16:48:49;;;;;;;67.68;49.95;;;28.50;36.40;;;;;;6176608;28;20039;-83
2022/07/06 16:51:51;;;;;;;4.53;0.98;;;28.50;36.50;;;;;;6183971;28;20050;-79
2022/07/06 16:54:52;;;;;;;1.85;0.77;;;28.40;35.90;;;;;;6190105;28;20042;-82
2022/07/06 16:57:56;;;;;;;3.05;0.98;;;28.40;35.90;;;;;;6182743;28;20038;-79
2022/07/06 17:00:58;;;;;;;3.13;0.60;;;28.30;36.30;;;;;;6185923;28;20113;-81
2022/07/06 17:04:00;;;;;;;1.95;0.50;;;28.10;36.70;;;;;;6182865;28;20046;-79
2022/07/06 17:07:02;;;;;;;2.90;0.38;;;28.20;36.30;;;;;;6182562;28;20057;-80
2022/07/06 17:10:05;;;;;;;2.53;0.50;;;28.20;35.90;;;;;;6166534;28;20524;-79
2022/07/06 17:13:08;;;;;;;1.58;0.60;;;28.10;35.90;;;;;;6191475;23;20065;-83
2022/07/06 17:16:09;;;;;;;5.40;2.88;;;28.00;36.40;;;;;;6197326;28;20114;-83
2022/07/06 17:19:11;;;;;;;13.80;6.82;;;27.80;36.70;;;;;;6208140;28;20054;-81
2022/07/06 17:22:39;;;;;;;2.30;1.10;;;27.80;36.20;;;;;;6200121;28;20115;-83
2022/07/06 17:26:16;;;;;;;1.90;0.60;;;27.80;36.30;;;;;;6115932;28;20055;-83
2022/07/06 17:43:45;;;;;;;24.13;10.63;;;26.60;37.90;;;;;;6198468;28;20046;-85
2022/07/06 17:47:38;;;;;;;11.52;5.32;;;26.50;38.90;;;;;;6195727;28;20047;-84
2022/07/06 17:50:39;;;;;;;11.95;1.05;;;26.30;39.00;;;;;;6192883;28;20094;-84
2022/07/06 17:53:42;;;;;;;6.63;1.00;;;26.20;38.80;;;;;;6192439;28;20050;-82
2022/07/06 17:57:25;;;;;;;3.53;0.38;;;26.10;39.20;;;;;;6187033;28;20047;-87
2022/07/06 18:01:03;;;;;;;0.63;0.30;;;26.00;39.70;;;;;;6178924;28;20051;-85
2022/07/06 18:08:51;;;;;;;2.95;0.70;;;25.70;39.80;;;;;;6228760;28;20060;-83
2022/07/06 18:11:55;;;;;;;1.17;0.63;;;25.60;40.30;;;;;;6223210;28;20067;-82
2022/07/06 18:15:00;;;;;;;2.90;0.40;;;25.40;40.50;;;;;;6224754;28;20492;-85
2022/07/06 18:18:34;;;;;;;1.80;1.33;;;25.20;40.70;;;;;;6193129;28;20054;-83
2022/07/06 18:25:37;;;;;;;1.52;0.45;;;24.80;41.50;;;;;;6204987;28;20050;-84
2022/07/06 18:28:41;;;;;;;2.72;0.50;;;24.70;41.90;;;;;;6223651;28;20061;-84
2022/07/06 18:31:57;;;;;;;0.50;0.22;;;24.60;42.20;;;;;;6223045;28;20054;-84
2022/07/06 18:35:00;;;;;;;2.78;0.30;;;24.60;42.10;;;;;;6210456;28;20042;-84
2022/07/06 18:38:02;;;;;;;4.85;2.15;;;24.50;42.40;;;;;;6215304;28;20061;-83
2022/07/06 18:56:39;;;;;;;1.58;0.60;;;24.10;43.00;;;;;;6222524;28;20105;-84
2022/07/06 19:12:58;;;;;;;;;;;;;;;;;;;;;
2022/07/06 19:16:06;;;;;;;5.50;2.33;;;23.20;44.70;;;;;;6169177;28;20051;-84